Time;durP1;ratioP1;P1;durP2;ratioP2;P2;SDS_P1;SDS_P2;PMS_P1;PMS_P2;Temp;Humidity;BMP_temperature;BMP_pressure;BME280_temperature;BME280_humidity;BME280_pressure;Samples;Min_cycle;Max_cycle;Signal;HPM_P1;HPM_P2
2022/04/01 00:01:03;;;;;;;26.13;19.40;;;7.20;79.50;;;;;;5033472;28;20668;-70
2022/04/01 00:03:31;;;;;;;29.23;21.65;;;7.20;79.40;;;;;;5039535;28;20205;-70
2022/04/01 00:06:00;;;;;;;34.15;25.70;;;7.20;79.20;;;;;;5038595;28;20196;-69
2022/04/01 00:08:29;;;;;;;29.90;21.23;;;7.20;79.00;;;;;;5022659;28;20216;-71
2022/04/01 00:10:57;;;;;;;30.70;22.55;;;7.10;79.20;;;;;;5038776;28;20210;-71
2022/04/01 00:13:25;;;;;;;27.42;19.60;;;7.20;79.20;;;;;;5037848;28;20785;-69
2022/04/01 00:15:53;;;;;;;31.67;23.55;;;7.20;79.10;;;;;;5037973;28;20236;-70
2022/04/01 00:18:21;;;;;;;39.42;29.25;;;7.20;79.20;;;;;;5034970;28;21000;-71
2022/04/01 00:20:49;;;;;;;27.80;19.38;;;7.10;79.10;;;;;;5035242;28;20297;-70
2022/04/01 00:23:18;;;;;;;27.33;19.42;;;7.10;78.90;;;;;;5038419;28;20207;-70
2022/04/01 00:25:46;;;;;;;30.50;22.75;;;7.00;78.50;;;;;;5039013;28;20744;-70
2022/04/01 00:28:14;;;;;;;26.50;20.13;;;6.80;78.30;;;;;;5037556;28;20250;-71
2022/04/01 00:30:43;;;;;;;30.05;23.50;;;6.70;78.50;;;;;;5032131;28;20260;-70
2022/04/01 00:33:14;;;;;;;26.23;19.77;;;6.60;79.00;;;;;;5032897;28;20225;-71
2022/04/01 00:35:43;;;;;;;25.08;19.70;;;6.60;79.00;;;;;;5038994;28;20216;-69
2022/04/01 00:38:11;;;;;;;24.58;19.08;;;6.60;79.10;;;;;;5034654;28;20213;-71
2022/04/01 00:40:42;;;;;;;27.67;20.13;;;6.60;79.30;;;;;;5036965;28;20213;-70
2022/04/01 00:43:11;;;;;;;25.30;19.05;;;6.70;79.50;;;;;;5015480;28;20242;-70
2022/04/01 00:45:39;;;;;;;30.23;21.83;;;6.80;79.30;;;;;;5037490;28;20240;-70
2022/04/01 00:48:07;;;;;;;28.15;20.98;;;6.80;79.20;;;;;;5020767;28;20316;-70
2022/04/01 00:50:36;;;;;;;27.35;18.80;;;6.80;78.80;;;;;;5033916;28;20205;-71
2022/04/01 00:53:08;;;;;;;25.75;19.25;;;6.70;78.70;;;;;;5022906;28;20213;-70
2022/04/01 00:55:38;;;;;;;29.00;19.73;;;6.60;78.90;;;;;;5040406;28;21004;-71
2022/04/01 00:58:10;;;;;;;25.85;19.25;;;6.60;78.90;;;;;;5037828;28;20221;-70
2022/04/01 01:00:39;;;;;;;27.33;20.42;;;6.60;78.80;;;;;;5035275;28;20630;-71
2022/04/01 01:03:08;;;;;;;24.08;17.70;;;6.50;78.80;;;;;;5036472;28;20612;-71
2022/04/01 01:05:37;;;;;;;24.83;18.33;;;6.50;78.80;;;;;;5020264;28;20217;-71
2022/04/01 01:08:07;;;;;;;28.20;19.40;;;6.50;78.90;;;;;;5035030;28;20272;-71
2022/04/01 01:10:36;;;;;;;26.73;19.50;;;6.60;78.70;;;;;;5037068;28;20243;-71
2022/04/01 01:13:05;;;;;;;25.95;18.60;;;6.50;78.50;;;;;;5016197;28;20888;-71
2022/04/01 01:15:36;;;;;;;25.92;19.25;;;6.50;78.60;;;;;;5033536;28;20701;-71
2022/04/01 01:18:05;;;;;;;27.85;19.98;;;6.40;78.60;;;;;;5032589;28;20594;-72
2022/04/01 01:20:33;;;;;;;25.33;18.00;;;6.40;78.40;;;;;;5034632;28;20215;-71
2022/04/01 01:23:02;;;;;;;25.25;18.70;;;6.30;78.40;;;;;;5037977;28;20588;-71
2022/04/01 01:25:35;;;;;;;25.10;18.20;;;6.30;78.50;;;;;;5034459;28;20208;-71
2022/04/01 01:28:03;;;;;;;23.88;16.90;;;6.30;79.00;;;;;;5032663;28;20875;-71
2022/04/01 01:30:32;;;;;;;23.58;17.63;;;6.40;78.80;;;;;;5033616;28;20232;-69
2022/04/01 01:33:01;;;;;;;23.17;17.45;;;6.40;78.60;;;;;;5031436;28;20200;-69
2022/04/01 01:35:30;;;;;;;24.08;16.70;;;6.30;78.50;;;;;;5038313;28;20213;-71
2022/04/01 01:37:58;;;;;;;23.05;16.88;;;6.40;78.70;;;;;;5038209;28;20863;-71
2022/04/01 01:40:27;;;;;;;23.00;16.40;;;6.40;78.90;;;;;;5035747;28;20197;-72
2022/04/01 01:42:56;;;;;;;21.80;16.25;;;6.50;78.90;;;;;;5037389;28;20665;-70
2022/04/01 01:45:25;;;;;;;24.30;16.98;;;6.50;78.80;;;;;;5016640;28;20212;-70
2022/04/01 01:47:54;;;;;;;24.95;16.75;;;6.60;78.70;;;;;;5033143;28;20236;-69
2022/04/01 01:55:53;;;;;;;23.95;17.42;;;6.60;78.50;;;;;;5019813;28;20217;-71
2022/04/01 01:58:22;;;;;;;21.60;16.45;;;6.50;78.50;;;;;;5032549;28;20200;-70
2022/04/01 02:00:50;;;;;;;26.08;18.35;;;6.60;78.50;;;;;;5033670;28;20340;-71
2022/04/01 02:03:18;;;;;;;25.02;17.20;;;6.50;78.10;;;;;;5033724;28;20201;-71
2022/04/01 02:05:50;;;;;;;23.48;17.00;;;6.50;78.30;;;;;;5020826;28;20216;-70
2022/04/01 02:08:18;;;;;;;21.05;16.10;;;6.50;78.20;;;;;;5036354;28;20244;-70
2022/04/01 02:10:46;;;;;;;21.50;15.93;;;6.50;78.40;;;;;;5035385;28;20197;-71
2022/04/01 02:13:14;;;;;;;22.17;17.02;;;6.50;78.30;;;;;;5017486;28;20201;-71
2022/04/01 02:15:45;;;;;;;22.95;16.90;;;6.40;78.30;;;;;;5029319;28;20236;-70
2022/04/01 02:18:13;;;;;;;25.42;17.20;;;6.40;78.30;;;;;;5028438;28;20557;-71
2022/04/01 02:20:41;;;;;;;26.08;17.77;;;6.40;78.10;;;;;;5034221;28;20689;-70
2022/04/01 02:23:11;;;;;;;24.67;16.98;;;6.40;78.20;;;;;;5031476;28;20315;-70
2022/04/01 02:25:40;;;;;;;25.63;17.80;;;6.30;78.20;;;;;;5019038;28;20219;-70
2022/04/01 02:28:08;;;;;;;25.35;17.05;;;6.30;78.30;;;;;;5033257;28;20689;-70
2022/04/01 02:30:37;;;;;;;22.80;16.10;;;6.30;78.10;;;;;;5028858;28;20221;-70
2022/04/01 02:33:29;;;;;;;24.20;17.55;;;6.30;78.20;;;;;;5029369;28;20359;-71
2022/04/01 02:36:02;;;;;;;23.70;17.13;;;6.20;78.20;;;;;;5015573;28;20201;-70
2022/04/01 02:38:31;;;;;;;21.92;16.15;;;6.20;78.30;;;;;;5019577;28;20262;-73
2022/04/01 02:41:00;;;;;;;24.42;17.63;;;6.20;78.40;;;;;;5018499;28;20204;-72
2022/04/01 02:43:33;;;;;;;23.83;18.27;;;6.30;78.50;;;;;;5019493;28;20870;-71
2022/04/01 02:46:02;;;;;;;26.10;18.55;;;6.30;78.30;;;;;;5032783;28;20306;-71
2022/04/01 02:48:33;;;;;;;26.98;18.58;;;6.30;78.40;;;;;;5015313;28;20224;-71
2022/04/01 02:51:24;;;;;;;24.33;17.48;;;6.30;78.40;;;;;;5017915;28;20227;-71
2022/04/01 02:53:55;;;;;;;24.30;17.75;;;6.30;78.30;;;;;;5014870;28;20218;-71
2022/04/01 02:56:23;;;;;;;24.90;18.55;;;6.20;78.00;;;;;;5029740;28;20889;-72
2022/04/01 02:58:51;;;;;;;27.58;18.85;;;6.10;78.10;;;;;;5033246;28;20220;-71
2022/04/01 03:01:21;;;;;;;25.50;18.10;;;6.10;78.30;;;;;;5029965;28;20236;-71
2022/04/01 03:03:51;;;;;;;23.67;17.13;;;6.10;78.50;;;;;;5017209;28;20267;-71
2022/04/01 03:06:24;;;;;;;27.17;17.95;;;6.20;78.40;;;;;;5016246;28;20635;-71
2022/04/01 03:08:53;;;;;;;23.65;16.80;;;6.10;78.40;;;;;;5030868;28;20223;-70
2022/04/01 03:11:21;;;;;;;25.85;17.95;;;6.10;78.50;;;;;;5020835;28;20209;-69
2022/04/01 03:13:49;;;;;;;23.25;16.88;;;6.20;78.50;;;;;;5032225;28;20204;-70
2022/04/01 03:16:37;;;;;;;23.30;17.65;;;6.20;78.60;;;;;;5026971;28;20759;-70
2022/04/01 03:19:10;;;;;;;24.13;16.58;;;6.20;78.30;;;;;;5035020;28;20196;-72
2022/04/01 03:21:39;;;;;;;24.55;17.02;;;6.10;78.30;;;;;;5022180;28;20209;-71
2022/04/01 03:24:10;;;;;;;25.25;16.92;;;6.20;78.50;;;;;;5022163;28;20200;-71
2022/04/01 03:26:39;;;;;;;25.05;17.90;;;6.20;78.20;;;;;;5031116;28;20265;-71
2022/04/01 03:29:10;;;;;;;24.67;16.75;;;6.10;78.30;;;;;;5015226;28;20212;-71
2022/04/01 03:31:40;;;;;;;27.88;18.70;;;6.10;78.40;;;;;;5013181;28;20260;-71
2022/04/01 03:34:10;;;;;;;24.08;17.00;;;6.10;78.50;;;;;;5031556;28;20266;-70
2022/04/01 03:36:39;;;;;;;23.08;15.95;;;6.20;78.50;;;;;;5022745;28;20220;-71
2022/04/01 03:39:07;;;;;;;20.85;15.07;;;6.20;78.40;;;;;;5022412;28;20199;-70
2022/04/01 03:41:42;;;;;;;24.42;17.30;;;6.20;78.50;;;;;;5026545;28;20203;-71
2022/04/01 03:44:11;;;;;;;25.13;17.40;;;6.30;78.50;;;;;;5035073;28;20299;-70
2022/04/01 03:46:48;;;;;;;25.05;17.70;;;6.30;78.40;;;;;;5013646;28;20255;-70
2022/04/01 03:49:23;;;;;;;25.95;16.90;;;6.30;78.50;;;;;;5021454;28;20266;-70
2022/04/01 03:51:56;;;;;;;22.38;15.88;;;6.40;78.50;;;;;;5036310;28;20207;-71
2022/04/01 03:54:27;;;;;;;23.92;17.45;;;6.40;78.50;;;;;;5021315;28;20295;-70
2022/04/01 03:57:05;;;;;;;21.08;15.82;;;6.50;78.50;;;;;;5035965;28;20650;-71
2022/04/01 03:59:57;;;;;;;21.35;15.48;;;6.50;78.40;;;;;;5037636;28;20275;-70
2022/04/01 04:02:41;;;;;;;23.38;16.63;;;6.50;78.20;;;;;;5038413;28;20233;-71
2022/04/01 04:05:13;;;;;;;23.38;15.88;;;6.50;77.90;;;;;;5034854;28;20228;-71
2022/04/01 04:07:42;;;;;;;22.05;16.17;;;6.40;77.90;;;;;;5021004;28;20232;-70
2022/04/01 04:10:14;;;;;;;22.50;17.15;;;6.40;78.10;;;;;;5034962;28;20217;-71
2022/04/01 04:12:57;;;;;;;22.70;16.50;;;6.40;78.20;;;;;;5032008;28;20215;-70
2022/04/01 04:15:39;;;;;;;25.33;17.52;;;6.50;78.10;;;;;;5028409;28;20244;-70
2022/04/01 04:18:12;;;;;;;23.23;16.30;;;6.40;77.70;;;;;;5035567;28;20251;-71
2022/04/01 04:21:04;;;;;;;24.83;16.90;;;6.30;77.70;;;;;;5030357;28;20201;-70
2022/04/01 04:23:39;;;;;;;27.42;18.48;;;6.30;77.90;;;;;;5019676;28;20205;-71
2022/04/01 04:26:13;;;;;;;25.70;18.23;;;6.30;77.60;;;;;;5021485;28;20211;-71
2022/04/01 04:28:49;;;;;;;23.42;16.00;;;6.20;77.60;;;;;;5036271;28;20212;-71
2022/04/01 04:31:34;;;;;;;22.67;16.23;;;6.20;77.80;;;;;;5019388;28;20221;-71
2022/04/01 04:34:11;;;;;;;20.45;14.85;;;6.20;77.90;;;;;;5036277;28;20209;-70
2022/04/01 04:36:43;;;;;;;23.13;17.25;;;6.20;78.00;;;;;;5038680;28;20235;-70
2022/04/01 04:39:21;;;;;;;24.65;17.40;;;6.20;77.80;;;;;;5036828;28;20224;-70
2022/04/01 04:41:50;;;;;;;25.67;17.02;;;6.20;77.50;;;;;;5019923;28;20253;-71
2022/04/01 04:44:19;;;;;;;23.70;17.05;;;6.10;77.60;;;;;;5036597;28;20696;-70
2022/04/01 04:46:49;;;;;;;25.02;17.70;;;6.10;77.90;;;;;;5020803;28;20233;-71
2022/04/01 04:49:22;;;;;;;20.38;14.63;;;6.10;78.00;;;;;;5033227;28;20789;-71
2022/04/01 04:51:53;;;;;;;23.63;16.45;;;6.10;78.00;;;;;;5018062;28;20200;-69
2022/04/01 04:54:28;;;;;;;22.50;15.85;;;6.10;77.70;;;;;;5015567;28;20212;-69
2022/04/01 04:57:15;;;;;;;22.50;15.05;;;6.10;78.00;;;;;;5037486;28;20235;-70
2022/04/01 04:59:44;;;;;;;21.52;15.65;;;6.20;78.00;;;;;;5025250;28;20496;-69
2022/04/01 05:02:18;;;;;;;19.45;14.60;;;6.20;78.00;;;;;;5016874;28;20259;-69
2022/04/01 05:05:03;;;;;;;19.83;14.63;;;6.20;77.90;;;;;;5036866;28;20677;-69
2022/04/01 05:08:05;;;;;;;22.02;15.73;;;6.20;77.70;;;;;;5034108;28;20255;-69
2022/04/01 05:10:47;;;;;;;21.98;15.23;;;6.20;77.70;;;;;;5034939;28;20225;-69
2022/04/01 05:13:23;;;;;;;20.92;14.98;;;6.20;77.90;;;;;;5024847;28;20287;-69
2022/04/01 05:16:05;;;;;;;18.58;13.93;;;6.20;77.80;;;;;;5015535;28;20650;-69
2022/04/01 05:18:40;;;;;;;27.65;18.25;;;6.20;77.80;;;;;;5032197;28;20196;-69
2022/04/01 05:21:18;;;;;;;21.88;15.88;;;6.20;77.80;;;;;;5018832;28;20200;-70
2022/04/01 05:23:55;;;;;;;20.55;14.25;;;6.20;77.70;;;;;;5019868;28;21104;-70
2022/04/01 05:26:38;;;;;;;21.48;15.05;;;6.30;77.80;;;;;;5032581;28;20293;-70
2022/04/01 05:29:14;;;;;;;18.65;13.35;;;6.30;77.80;;;;;;5037290;28;20228;-70
2022/04/01 05:31:52;;;;;;;46.65;24.92;;;6.30;77.80;;;;;;5023986;28;20580;-70
2022/04/01 05:34:26;;;;;;;19.88;14.32;;;6.30;77.60;;;;;;5032625;28;20271;-70
2022/04/01 05:36:57;;;;;;;23.75;16.13;;;6.30;77.50;;;;;;5018234;28;20233;-70
2022/04/01 05:39:29;;;;;;;53.20;27.35;;;6.30;77.50;;;;;;5038525;28;20199;-70
2022/04/01 05:42:02;;;;;;;25.23;15.68;;;6.20;77.10;;;;;;5019976;28;20211;-70
2022/04/01 05:44:38;;;;;;;31.50;20.80;;;6.10;77.20;;;;;;5020375;28;20283;-70
2022/04/01 05:47:10;;;;;;;23.15;15.52;;;6.10;77.40;;;;;;5033952;28;20788;-69
2022/04/01 05:49:41;;;;;;;39.42;24.00;;;6.10;77.60;;;;;;5036113;28;20224;-69
2022/04/01 05:52:12;;;;;;;22.63;16.40;;;6.00;77.40;;;;;;5019137;28;20620;-71
2022/04/01 05:54:43;;;;;;;24.02;16.20;;;6.00;77.20;;;;;;5038268;28;20215;-71
2022/04/01 05:57:13;;;;;;;20.13;14.38;;;5.90;77.30;;;;;;5035028;28;20233;-70
2022/04/01 05:59:41;;;;;;;24.60;15.63;;;5.80;77.30;;;;;;5033708;28;20664;-70
2022/04/01 06:02:37;;;;;;;34.65;18.98;;;5.80;77.60;;;;;;5012608;28;20240;-71
2022/04/01 06:05:17;;;;;;;24.40;16.80;;;5.80;77.60;;;;;;5032695;28;20209;-70
2022/04/01 06:07:51;;;;;;;18.88;14.00;;;5.90;77.80;;;;;;5032352;28;20229;-70
2022/04/01 06:10:27;;;;;;;19.00;13.27;;;5.90;77.70;;;;;;5015368;28;20214;-70
2022/04/01 06:13:33;;;;;;;29.92;16.77;;;5.90;77.80;;;;;;5034008;28;20363;-70
2022/04/01 06:16:26;;;;;;;54.67;25.17;;;5.90;77.70;;;;;;5030172;28;20311;-71
2022/04/01 06:19:16;;;;;;;57.78;24.80;;;5.80;77.50;;;;;;5016862;28;20221;-70
2022/04/01 06:21:48;;;;;;;32.60;18.98;;;5.80;77.60;;;;;;5033564;28;20238;-70
2022/04/01 06:24:24;;;;;;;49.10;24.15;;;5.80;77.60;;;;;;5015134;28;20757;-71
2022/04/01 06:27:00;;;;;;;22.17;15.15;;;5.80;77.70;;;;;;5021937;28;20275;-70
2022/04/01 06:29:37;;;;;;;38.35;22.80;;;5.80;77.60;;;;;;5035374;28;20216;-70
2022/04/01 06:32:13;;;;;;;23.38;17.10;;;5.70;77.30;;;;;;5032415;28;20791;-69
2022/04/01 06:35:03;;;;;;;23.83;16.67;;;5.60;77.20;;;;;;5026329;28;20761;-69
2022/04/01 06:37:58;;;;;;;23.77;17.45;;;5.50;77.60;;;;;;5018106;28;20293;-70
2022/04/01 06:40:34;;;;;;;28.05;19.05;;;5.50;77.70;;;;;;5034684;28;20199;-70
2022/04/01 06:43:05;;;;;;;24.85;16.90;;;5.40;77.70;;;;;;5034582;28;20204;-70
2022/04/01 06:45:54;;;;;;;17.90;12.88;;;5.30;77.80;;;;;;5030015;28;20268;-70
2022/04/01 06:48:41;;;;;;;24.15;16.90;;;5.30;78.00;;;;;;5039032;28;20227;-70
2022/04/01 06:51:27;;;;;;;23.52;16.45;;;5.40;78.20;;;;;;5029728;28;20240;-70
2022/04/01 06:54:14;;;;;;;26.00;16.45;;;5.30;77.90;;;;;;5034589;28;20216;-70
2022/04/01 06:57:02;;;;;;;22.42;15.77;;;5.30;77.80;;;;;;5033703;28;20240;-71
2022/04/01 06:59:45;;;;;;;24.30;17.73;;;5.20;77.90;;;;;;5032208;28;20236;-71
2022/04/01 07:02:13;;;;;;;23.33;17.45;;;5.10;78.00;;;;;;5034527;28;20236;-70
2022/04/01 07:04:41;;;;;;;20.75;16.10;;;5.10;78.10;;;;;;5034483;28;20236;-70
2022/04/01 07:07:09;;;;;;;36.08;24.88;;;5.00;78.30;;;;;;5039614;28;20216;-69
2022/04/01 07:09:37;;;;;;;27.30;19.75;;;4.90;78.30;;;;;;5037266;28;20673;-71
2022/04/01 07:12:06;;;;;;;40.85;28.55;;;4.90;78.60;;;;;;5037042;28;20237;-71
2022/04/01 07:14:35;;;;;;;26.35;18.75;;;4.80;78.70;;;;;;5015755;28;20724;-71
2022/04/01 07:17:05;;;;;;;25.88;17.08;;;4.80;78.80;;;;;;5033671;28;20229;-71
2022/04/01 07:19:33;;;;;;;21.13;15.73;;;4.80;78.70;;;;;;5042495;28;20295;-71
2022/04/01 07:22:01;;;;;;;20.55;15.52;;;4.80;79.10;;;;;;5040948;28;20209;-70
2022/04/01 07:24:30;;;;;;;21.52;15.48;;;4.80;78.90;;;;;;5035108;28;20212;-70
2022/04/01 07:26:58;;;;;;;20.88;15.32;;;4.80;79.00;;;;;;5041658;28;20239;-70
2022/04/01 07:29:26;;;;;;;29.10;22.67;;;4.70;79.40;;;;;;5038477;28;20216;-71
2022/04/01 07:34:45;;;;;;;27.05;18.08;;;4.60;79.30;;;;;;5038069;28;20216;-70
2022/04/01 07:37:13;;;;;;;23.98;17.70;;;4.50;79.60;;;;;;5040466;28;20225;-70
2022/04/01 07:40:02;;;;;;;19.63;15.77;;;4.50;79.80;;;;;;5039811;28;20215;-70
2022/04/01 07:42:30;;;;;;;20.20;15.40;;;4.60;79.50;;;;;;5040873;28;20212;-71
2022/04/01 07:45:00;;;;;;;22.52;15.02;;;4.50;79.70;;;;;;5041448;28;20204;-70
2022/04/01 07:47:28;;;;;;;20.30;15.68;;;4.50;79.60;;;;;;5038892;28;20233;-69
2022/04/01 07:49:57;;;;;;;26.67;19.95;;;4.50;80.10;;;;;;5039054;28;20203;-70
2022/04/01 07:52:25;;;;;;;25.63;17.52;;;4.50;79.80;;;;;;5037114;28;20216;-70
2022/04/01 07:54:53;;;;;;;21.65;16.48;;;4.50;79.90;;;;;;5040310;28;20212;-70
2022/04/01 07:57:21;;;;;;;21.10;15.48;;;4.50;80.00;;;;;;5038781;28;20232;-71
2022/04/01 07:59:49;;;;;;;29.05;20.30;;;4.50;79.90;;;;;;5040638;28;20678;-71
2022/04/01 08:02:18;;;;;;;21.20;16.52;;;4.60;80.20;;;;;;5036045;28;20224;-71
2022/04/01 08:04:46;;;;;;;23.50;17.35;;;4.60;79.90;;;;;;5045281;28;20305;-71
2022/04/01 08:07:17;;;;;;;23.17;16.30;;;4.70;80.10;;;;;;5047700;28;20760;-71
2022/04/01 08:09:46;;;;;;;24.00;18.20;;;4.70;79.90;;;;;;5048027;28;20280;-71
2022/04/01 08:12:15;;;;;;;24.80;18.55;;;4.60;80.00;;;;;;5051468;28;20221;-70
2022/04/01 08:14:44;;;;;;;29.40;20.73;;;4.60;79.90;;;;;;5043404;28;20215;-71
2022/04/01 08:17:14;;;;;;;24.25;17.63;;;4.60;80.10;;;;;;5039374;28;20239;-71
2022/04/01 08:19:44;;;;;;;24.35;19.38;;;4.50;80.00;;;;;;5038604;28;20281;-69
2022/04/01 08:22:12;;;;;;;25.90;18.92;;;4.60;80.20;;;;;;5041081;28;20194;-69
2022/04/01 08:24:41;;;;;;;29.35;20.10;;;4.70;80.20;;;;;;5039787;28;20205;-70
2022/04/01 08:27:09;;;;;;;27.23;19.70;;;4.70;80.30;;;;;;5036940;28;20269;-70
2022/04/01 08:29:37;;;;;;;25.08;16.08;;;4.70;80.10;;;;;;5036444;28;20219;-70
2022/04/01 08:32:07;;;;;;;25.05;17.90;;;4.60;80.10;;;;;;5033760;28;20228;-70
2022/04/01 08:34:37;;;;;;;21.05;16.88;;;4.60;80.10;;;;;;5034251;28;20235;-70
2022/04/01 08:37:07;;;;;;;24.95;18.27;;;4.70;80.30;;;;;;5038180;28;20226;-71
2022/04/01 08:39:35;;;;;;;25.52;19.13;;;4.70;80.30;;;;;;5038895;28;20229;-70
2022/04/01 08:42:05;;;;;;;26.20;20.08;;;4.80;80.30;;;;;;5038897;28;20200;-70
2022/04/01 08:44:36;;;;;;;30.50;20.85;;;4.80;80.10;;;;;;5039805;28;20713;-70
2022/04/01 08:47:04;;;;;;;26.25;19.52;;;4.90;80.30;;;;;;5037817;28;20336;-70
2022/04/01 08:49:32;;;;;;;30.25;22.25;;;4.80;80.00;;;;;;5036413;28;20201;-69
2022/04/01 08:52:00;;;;;;;35.92;21.75;;;4.70;79.80;;;;;;5038499;28;20213;-69
2022/04/01 08:54:32;;;;;;;34.53;23.50;;;4.70;79.90;;;;;;5037617;28;20209;-69
2022/04/01 08:57:00;;;;;;;30.52;22.08;;;4.70;80.00;;;;;;5040195;28;20221;-69
2022/04/01 08:59:33;;;;;;;31.02;21.63;;;4.70;80.00;;;;;;5036235;28;20776;-70
2022/04/01 09:02:05;;;;;;;36.50;25.95;;;4.70;80.20;;;;;;5034609;28;20228;-70
2022/04/01 09:04:34;;;;;;;28.58;20.15;;;4.70;80.50;;;;;;5040190;28;20200;-70
2022/04/01 09:07:12;;;;;;;30.05;21.48;;;4.80;80.30;;;;;;5037151;28;20251;-70
2022/04/01 09:09:40;;;;;;;31.30;21.90;;;4.80;80.00;;;;;;5018030;28;20212;-70
2022/04/01 09:12:11;;;;;;;31.52;22.90;;;4.70;79.60;;;;;;5041123;28;20229;-70
2022/04/01 09:14:41;;;;;;;34.30;24.77;;;4.50;79.80;;;;;;5032777;28;20510;-70
2022/04/01 09:17:12;;;;;;;33.72;23.15;;;4.40;79.90;;;;;;5029819;28;20233;-70
2022/04/01 09:19:46;;;;;;;31.85;21.77;;;4.40;80.20;;;;;;5038365;28;20259;-70
2022/04/01 09:22:19;;;;;;;32.95;22.17;;;4.30;80.20;;;;;;5036470;28;20194;-70
2022/04/01 09:24:58;;;;;;;30.98;23.35;;;4.30;80.30;;;;;;5035119;28;20210;-71
2022/04/01 09:27:46;;;;;;;34.88;22.70;;;4.30;80.30;;;;;;5037273;28;20221;-69
2022/04/01 09:30:17;;;;;;;32.75;23.23;;;4.30;80.50;;;;;;5035673;28;20213;-71
2022/04/01 09:32:47;;;;;;;34.90;24.85;;;4.30;80.40;;;;;;5033661;28;20268;-71
2022/04/01 09:35:16;;;;;;;52.55;37.70;;;4.30;80.30;;;;;;5035864;28;20197;-71
2022/04/01 09:37:46;;;;;;;41.30;31.85;;;4.20;80.40;;;;;;5039039;28;20236;-69
2022/04/01 09:40:17;;;;;;;36.33;26.67;;;4.20;80.40;;;;;;5038402;28;20208;-69
2022/04/01 09:42:49;;;;;;;34.95;24.55;;;4.20;80.40;;;;;;5032816;28;20732;-70
2022/04/01 09:45:21;;;;;;;35.13;24.85;;;4.20;80.60;;;;;;5016539;28;20235;-71
2022/04/01 09:47:59;;;;;;;34.22;23.48;;;4.20;80.50;;;;;;5034265;28;20331;-71
2022/04/01 09:50:30;;;;;;;38.85;25.40;;;4.10;80.00;;;;;;5035623;28;20245;-70
2022/04/01 09:53:09;;;;;;;31.27;22.95;;;4.10;80.30;;;;;;5029216;28;20213;-71
2022/04/01 09:55:37;;;;;;;34.70;25.17;;;4.10;80.40;;;;;;5035160;28;20209;-71
2022/04/01 09:58:07;;;;;;;35.92;23.50;;;4.10;80.50;;;;;;5036847;28;20232;-71
2022/04/01 10:00:39;;;;;;;35.85;27.85;;;4.10;80.70;;;;;;5034997;28;20243;-71
2022/04/01 10:03:09;;;;;;;34.00;25.02;;;4.10;80.70;;;;;;5035276;28;20197;-71
2022/04/01 10:05:39;;;;;;;36.78;27.80;;;4.20;80.60;;;;;;5035743;28;20578;-70
2022/04/01 10:08:09;;;;;;;35.47;26.38;;;4.20;80.90;;;;;;5037548;28;20239;-70
2022/04/01 10:10:40;;;;;;;33.22;24.98;;;4.30;80.50;;;;;;5036925;28;20308;-70
2022/04/01 10:13:12;;;;;;;36.05;26.00;;;4.20;80.40;;;;;;5032759;28;20209;-71
2022/04/01 10:15:44;;;;;;;42.30;30.98;;;4.20;80.50;;;;;;5015185;28;20229;-71
2022/04/01 10:18:32;;;;;;;33.53;24.05;;;4.20;80.60;;;;;;5032187;28;20201;-70
2022/04/01 10:21:02;;;;;;;30.58;22.52;;;4.20;80.60;;;;;;5034973;28;20203;-70
2022/04/01 10:23:31;;;;;;;33.22;23.45;;;4.20;80.40;;;;;;5034753;28;20198;-70
2022/04/01 10:26:03;;;;;;;41.85;26.45;;;4.20;80.30;;;;;;5032906;28;20207;-70
2022/04/01 10:28:31;;;;;;;46.47;30.77;;;4.10;80.40;;;;;;5036168;28;20665;-69
2022/04/01 10:31:02;;;;;;;37.97;26.23;;;4.00;80.60;;;;;;5033289;28;20232;-69
2022/04/01 10:33:35;;;;;;;32.70;25.60;;;3.90;80.40;;;;;;5033467;28;20213;-69
2022/04/01 10:36:15;;;;;;;43.45;31.80;;;3.90;80.60;;;;;;5038675;28;20338;-69
2022/04/01 10:38:47;;;;;;;34.75;26.08;;;3.80;80.70;;;;;;5036464;28;20219;-69
2022/04/01 10:41:18;;;;;;;47.70;35.38;;;3.80;80.70;;;;;;5031661;28;20204;-69
2022/04/01 10:43:52;;;;;;;45.88;32.85;;;3.80;80.70;;;;;;5034526;28;20198;-69
2022/04/01 10:46:21;;;;;;;41.30;29.60;;;3.80;81.00;;;;;;5033512;28;20314;-69
2022/04/01 10:52:18;;;;;;;29.58;21.40;;;3.90;80.80;;;;;;5034737;28;20689;-69
2022/04/01 10:54:47;;;;;;;28.73;20.88;;;3.90;80.70;;;;;;5039479;28;20208;-69
2022/04/01 10:57:27;;;;;;;35.45;26.65;;;3.90;80.70;;;;;;5035873;28;20232;-69
2022/04/01 10:59:59;;;;;;;36.70;25.10;;;3.90;80.80;;;;;;5035607;28;20207;-69
2022/04/01 11:02:28;;;;;;;30.88;21.77;;;3.90;80.80;;;;;;5037236;28;20221;-70
2022/04/01 11:05:00;;;;;;;34.80;26.27;;;3.90;81.10;;;;;;5034990;28;20201;-69
2022/04/01 11:07:33;;;;;;;34.65;25.67;;;3.90;81.10;;;;;;5033104;28;20311;-70
2022/04/01 11:10:04;;;;;;;43.55;28.20;;;3.90;81.00;;;;;;5037494;28;20212;-70
2022/04/01 11:12:38;;;;;;;34.90;24.42;;;4.00;81.00;;;;;;5035088;28;20220;-70
2022/04/01 11:15:29;;;;;;;26.02;19.98;;;4.00;81.30;;;;;;5036986;28;20307;-70
2022/04/01 11:18:09;;;;;;;42.83;29.42;;;4.00;81.00;;;;;;5010114;28;20221;-70
2022/04/01 11:20:40;;;;;;;54.28;38.10;;;4.00;81.30;;;;;;5035387;28;20209;-69
2022/04/01 11:23:13;;;;;;;83.20;54.15;;;4.10;81.10;;;;;;5040742;28;20217;-69
2022/04/01 11:25:57;;;;;;;48.88;34.70;;;4.10;81.40;;;;;;5021978;28;20555;-69
2022/04/01 11:28:27;;;;;;;56.00;40.30;;;4.20;81.00;;;;;;5042787;28;20201;-69
2022/04/01 11:31:12;;;;;;;54.70;39.72;;;4.20;80.90;;;;;;5039047;28;20224;-69
2022/04/01 11:33:57;;;;;;;41.05;27.60;;;4.20;80.60;;;;;;5034894;28;20651;-70
2022/04/01 11:36:27;;;;;;;33.33;25.75;;;4.20;80.70;;;;;;5017301;28;20235;-70
2022/04/01 11:38:55;;;;;;;34.40;24.38;;;4.20;80.50;;;;;;5034597;28;20201;-68
2022/04/01 11:41:23;;;;;;;41.10;28.00;;;4.20;80.40;;;;;;5036862;28;20229;-71
2022/04/01 11:43:52;;;;;;;33.70;25.20;;;4.10;80.30;;;;;;5035638;28;20205;-70
2022/04/01 11:46:22;;;;;;;41.22;31.23;;;4.10;80.30;;;;;;5035360;28;20233;-70
2022/04/01 11:48:51;;;;;;;33.53;25.80;;;4.10;80.60;;;;;;5035826;28;20517;-71
2022/04/01 11:51:23;;;;;;;35.25;24.40;;;4.10;80.50;;;;;;5020188;28;20202;-70
2022/04/01 11:53:53;;;;;;;44.88;31.02;;;3.90;80.10;;;;;;5033585;28;20219;-70
2022/04/01 11:56:22;;;;;;;41.70;27.83;;;3.90;80.60;;;;;;5037895;28;20213;-70
2022/04/01 11:58:58;;;;;;;43.58;31.42;;;3.90;81.30;;;;;;5039545;28;20233;-70
2022/04/01 12:01:29;;;;;;;44.05;30.08;;;3.90;80.90;;;;;;5021795;28;20239;-70
2022/04/01 12:04:08;;;;;;;46.00;33.35;;;3.80;81.10;;;;;;5033813;28;20204;-70
2022/04/01 12:09:29;;;;;;;33.22;22.88;;;3.70;80.60;;;;;;5040539;28;20196;-72
2022/04/01 12:12:01;;;;;;;34.67;24.48;;;3.60;80.60;;;;;;5039040;28;20231;-71
2022/04/01 12:14:30;;;;;;;41.03;27.27;;;3.50;80.60;;;;;;5037685;28;20713;-70
2022/04/01 12:16:58;;;;;;;29.02;21.55;;;3.40;80.80;;;;;;5036588;28;20245;-71
2022/04/01 12:19:30;;;;;;;25.65;17.13;;;3.40;80.90;;;;;;5036148;28;20209;-72
2022/04/01 12:22:00;;;;;;;32.20;22.45;;;3.40;80.90;;;;;;5036903;28;20209;-71
2022/04/01 12:24:29;;;;;;;39.55;26.77;;;3.30;81.00;;;;;;5037296;28;20186;-71
2022/04/01 12:26:59;;;;;;;31.60;22.20;;;3.30;81.10;;;;;;5037594;28;20225;-71
2022/04/01 12:29:29;;;;;;;29.73;19.42;;;3.40;81.40;;;;;;5039352;28;20197;-72
2022/04/01 12:32:00;;;;;;;31.02;21.45;;;3.40;81.10;;;;;;5035686;28;20243;-72
2022/04/01 12:34:29;;;;;;;28.25;21.10;;;3.50;81.40;;;;;;5037781;28;20213;-72
2022/04/01 12:37:00;;;;;;;35.90;27.48;;;3.60;81.30;;;;;;5036070;28;20237;-72
2022/04/01 12:39:32;;;;;;;48.83;33.65;;;3.70;81.40;;;;;;5020565;28;20205;-72
2022/04/01 12:42:01;;;;;;;36.60;29.60;;;3.70;81.00;;;;;;5037724;28;20213;-72
2022/04/01 12:44:31;;;;;;;32.00;25.70;;;3.70;80.70;;;;;;5038241;28;20205;-72
2022/04/01 12:47:03;;;;;;;34.50;25.17;;;3.70;81.10;;;;;;5036992;28;20243;-72
2022/04/01 12:49:34;;;;;;;25.10;21.30;;;3.80;81.40;;;;;;5036702;28;20205;-72
2022/04/01 12:52:09;;;;;;;28.67;20.33;;;4.00;81.40;;;;;;5035441;28;20856;-70
2022/04/01 12:54:42;;;;;;;43.92;32.47;;;4.10;81.40;;;;;;5034849;28;20783;-70
2022/04/01 12:57:19;;;;;;;27.35;20.35;;;4.20;81.50;;;;;;5034017;28;20232;-71
2022/04/01 12:59:49;;;;;;;25.38;16.70;;;4.30;81.10;;;;;;5033524;28;20253;-70
2022/04/01 13:02:19;;;;;;;19.73;15.55;;;4.40;80.90;;;;;;5034936;28;20282;-71
2022/04/01 13:04:50;;;;;;;21.00;15.32;;;4.40;81.00;;;;;;5037051;28;20204;-72
2022/04/01 13:07:20;;;;;;;19.83;15.05;;;4.50;81.10;;;;;;5035613;28;20221;-70
2022/04/01 13:09:53;;;;;;;23.00;16.83;;;4.50;80.80;;;;;;5035798;28;20285;-71
2022/04/01 13:12:23;;;;;;;20.90;14.90;;;4.60;80.80;;;;;;5015684;28;20612;-71
2022/04/01 13:15:02;;;;;;;24.55;16.70;;;4.60;80.90;;;;;;5033134;28;20239;-72
2022/04/01 13:17:41;;;;;;;20.27;15.65;;;4.70;81.00;;;;;;5036816;28;20319;-71